Terminal Aerodrome Forecast
Issued by NWS

Home | Current Version | Previous Version | Text Only | Print | Product List | Glossary On
Versions: 1 2 3 4 5 6 7 8 9 10 11 12 13 14 15 16 17 18 19 20
010
FTUS45 KRIW 231739
TAFCPR
TAF
KCPR 231739Z 2318/2418 01011KT P6SM VCSH SCT008 BKN020
      TEMPO 2319/2323 5SM -RA SCT014 BKN023
     FM240000 36011KT 2SM -SN SCT007 OVC013
     FM240500 36006KT 5SM -SN SCT009 OVC016
     FM240900 35006KT P6SM OVC020
     FM241400 22006KT P6SM SCT025=

USA.gov is the U.S. government's official web portal to all federal, state and local government web resources and services.